createdAt,value
2022-09-17T00:01:40.638Z,3.73
2022-09-17T00:04:12.445Z,3.40
2022-09-17T00:06:43.254Z,3.13
2022-09-17T00:09:12.153Z,3.70
2022-09-17T00:11:43.264Z,3.93
2022-09-17T00:14:17.651Z,4.43
2022-09-17T00:16:49.236Z,4.17
2022-09-17T00:19:20.727Z,3.70
2022-09-17T00:21:49.206Z,4.50
2022-09-17T00:24:18.519Z,3.67
2022-09-17T00:26:47.493Z,6.53
2022-09-17T00:29:16.292Z,5.10
2022-09-17T00:31:44.847Z,4.73
2022-09-17T00:34:13.490Z,4.53
2022-09-17T00:36:43.422Z,4.70
2022-09-17T00:39:15.698Z,3.80
2022-09-17T00:41:45.372Z,4.80
2022-09-17T00:44:57.054Z,5.40
2022-09-17T00:47:30.807Z,5.10
2022-09-17T00:50:03.818Z,4.80
2022-09-17T00:52:37.657Z,4.47
2022-09-17T00:55:14.839Z,4.30
2022-09-17T00:57:43.830Z,4.57
2022-09-17T01:00:14.326Z,4.70
2022-09-17T01:02:46.157Z,4.33
2022-09-17T01:05:15.670Z,4.97
2022-09-17T01:07:59.162Z,4.03
2022-09-17T01:10:49.652Z,3.50
2022-09-17T01:13:27.058Z,4.10
2022-09-17T01:16:07.759Z,3.97
2022-09-17T01:18:48.854Z,3.70
2022-09-17T01:21:39.993Z,3.90
2022-09-17T01:24:43.820Z,4.13
2022-09-17T01:27:45.642Z,3.23
2022-09-17T01:30:33.587Z,3.93
2022-09-17T01:33:12.044Z,4.17
2022-09-17T01:35:50.772Z,3.50
2022-09-17T01:38:29.502Z,3.37
2022-09-17T01:41:07.912Z,3.13
2022-09-17T01:43:48.035Z,3.57
2022-09-17T01:46:23.462Z,4.07
2022-09-17T01:48:58.100Z,3.07
2022-09-17T01:51:30.254Z,2.73
2022-09-17T01:54:03.193Z,3.00
2022-09-17T01:56:38.637Z,3.17
2022-09-17T01:59:18.690Z,3.80
2022-09-17T02:01:55.102Z,3.10
2022-09-17T02:04:29.117Z,2.77
2022-09-17T02:07:04.490Z,3.10
2022-09-17T02:09:39.700Z,4.33
2022-09-17T02:12:13.707Z,2.80
2022-09-17T02:14:48.880Z,3.70
2022-09-17T02:17:25.754Z,2.97
2022-09-17T02:19:55.786Z,3.83
2022-09-17T02:22:29.287Z,2.57
2022-09-17T02:25:05.771Z,2.70
2022-09-17T02:27:50.361Z,3.33
2022-09-17T02:30:19.482Z,3.30
2022-09-17T02:32:50.311Z,2.20
2022-09-17T02:35:19.929Z,2.87
2022-09-17T02:37:49.061Z,3.27
2022-09-17T02:40:19.978Z,2.53
2022-09-17T02:43:05.721Z,3.07
2022-09-17T02:45:53.353Z,2.37
2022-09-17T02:48:46.105Z,2.73
2022-09-17T02:51:33.329Z,2.47
2022-09-17T02:54:15.185Z,2.33
2022-09-17T02:56:52.196Z,2.90
2022-09-17T02:59:26.473Z,2.60
2022-09-17T03:02:01.461Z,3.37
2022-09-17T03:04:33.131Z,2.60
2022-09-17T03:07:06.321Z,2.67
2022-09-17T03:09:34.833Z,2.70
2022-09-17T03:12:04.174Z,2.73
2022-09-17T03:14:32.981Z,2.43
2022-09-17T03:17:01.336Z,3.63
2022-09-17T03:19:31.429Z,2.70
2022-09-17T03:22:00.126Z,2.40
2022-09-17T03:24:29.049Z,2.80
2022-09-17T03:26:58.799Z,2.83
2022-09-17T03:29:27.171Z,3.27
2022-09-17T03:31:55.552Z,3.40
2022-09-17T03:34:23.922Z,1.97
2022-09-17T03:36:53.800Z,2.83
2022-09-17T03:39:22.215Z,2.83
2022-09-17T03:41:51.434Z,3.07
2022-09-17T03:44:21.224Z,2.10
2022-09-17T03:46:49.794Z,3.33
2022-09-17T03:49:18.507Z,3.03
2022-09-17T03:51:46.790Z,3.47
2022-09-17T03:54:17.250Z,3.90
2022-09-17T03:56:45.799Z,3.43
2022-09-17T03:59:14.215Z,3.20
2022-09-17T04:01:43.327Z,2.73
2022-09-17T04:04:11.684Z,3.10
2022-09-17T04:06:40.114Z,2.83
2022-09-17T04:09:09.013Z,3.20
2022-09-17T04:11:38.875Z,3.10
2022-09-17T04:14:07.451Z,3.20
2022-09-17T04:16:36.120Z,3.00
2022-09-17T04:19:04.782Z,3.03
2022-09-17T04:21:33.181Z,2.20
2022-09-17T04:24:01.557Z,2.77
2022-09-17T04:26:30.053Z,2.83
2022-09-17T04:29:01.155Z,2.80
2022-09-17T04:31:29.502Z,3.23
2022-09-17T04:33:58.003Z,2.37
2022-09-17T04:36:26.350Z,3.73
2022-09-17T04:38:54.746Z,2.53
2022-09-17T04:41:23.221Z,2.80
2022-09-17T04:43:51.784Z,3.13
2022-09-17T04:46:21.573Z,2.97
2022-09-17T04:48:50.067Z,2.63
2022-09-17T04:51:18.480Z,2.80
2022-09-17T04:53:47.063Z,2.50
2022-09-17T04:56:15.546Z,2.63
2022-09-17T04:58:44.735Z,2.43
2022-09-17T05:01:14.048Z,3.23
2022-09-17T05:03:43.778Z,2.03
2022-09-17T05:06:15.281Z,2.73
2022-09-17T05:08:43.760Z,2.47
2022-09-17T05:11:12.231Z,2.90
2022-09-17T05:13:40.545Z,2.90
2022-09-17T05:16:08.954Z,2.97
2022-09-17T05:18:37.415Z,2.80
2022-09-17T05:21:07.590Z,2.47
2022-09-17T05:23:36.071Z,3.33
2022-09-17T05:26:04.795Z,2.10
2022-09-17T05:28:33.710Z,2.70
2022-09-17T05:31:02.677Z,4.37
2022-09-17T05:33:31.446Z,1.57
2022-09-17T05:36:00.033Z,2.37
2022-09-17T05:38:30.075Z,2.00
2022-09-17T05:40:58.514Z,2.57
2022-09-17T05:43:26.746Z,2.67
2022-09-17T05:45:55.204Z,1.90
2022-09-17T05:48:23.729Z,2.63
2022-09-17T05:50:52.164Z,2.67
2022-09-17T05:53:20.538Z,2.50
2022-09-17T05:55:50.590Z,2.53
2022-09-17T05:58:20.905Z,3.10
2022-09-17T06:00:49.343Z,2.10
2022-09-17T06:03:20.488Z,3.03
2022-09-17T06:05:55.455Z,2.17
2022-09-17T06:08:24.469Z,5.50
2022-09-17T06:10:58.955Z,2.50
2022-09-17T06:13:31.021Z,2.40
2022-09-17T06:15:59.551Z,2.73
2022-09-17T06:18:29.142Z,3.33
2022-09-17T06:20:58.762Z,2.47
2022-09-17T06:23:27.993Z,2.40
2022-09-17T06:25:59.414Z,2.93
2022-09-17T06:28:28.724Z,2.53
2022-09-17T06:31:02.118Z,2.80
2022-09-17T06:33:31.861Z,2.50
2022-09-17T06:36:03.063Z,3.17
2022-09-17T06:38:33.967Z,2.30
2022-09-17T06:41:04.780Z,2.80
2022-09-17T06:43:33.163Z,3.27
2022-09-17T06:46:03.024Z,2.80
2022-09-17T06:48:31.987Z,2.83
2022-09-17T06:51:04.090Z,2.60
2022-09-17T06:53:33.698Z,2.23
2022-09-17T06:56:06.655Z,2.60
2022-09-17T06:58:37.200Z,2.97
2022-09-17T07:01:06.423Z,2.47
2022-09-17T07:03:36.395Z,2.33
2022-09-17T07:06:05.873Z,1.83
2022-09-17T07:08:35.676Z,2.10
2022-09-17T07:11:05.536Z,2.47
2022-09-17T07:13:33.882Z,3.03
2022-09-17T07:16:04.360Z,2.40
2022-09-17T07:18:33.597Z,1.97
2022-09-17T07:21:03.708Z,2.20
2022-09-17T07:23:34.235Z,2.17
2022-09-17T07:26:08.548Z,2.50
2022-09-17T07:28:39.614Z,2.90
2022-09-17T07:31:11.371Z,2.53
2022-09-17T07:33:43.794Z,2.33
2022-09-17T07:36:14.571Z,2.43
2022-09-17T07:38:43.017Z,2.17
2022-09-17T07:41:15.660Z,2.50
2022-09-17T07:43:46.005Z,1.80
2022-09-17T07:46:17.436Z,2.37
2022-09-17T07:48:46.781Z,2.27
2022-09-17T07:51:20.064Z,2.33
2022-09-17T07:53:50.532Z,2.80
2022-09-17T07:56:21.339Z,2.57
2022-09-17T07:58:50.273Z,2.90
2022-09-17T08:01:21.082Z,1.97
2022-09-17T08:03:51.280Z,2.50
2022-09-17T08:06:22.420Z,2.33
2022-09-17T08:08:51.145Z,3.00
2022-09-17T08:11:44.640Z,1.90
2022-09-17T08:14:14.157Z,1.90
2022-09-17T08:16:43.087Z,2.10
2022-09-17T08:19:11.745Z,1.60
2022-09-17T08:21:40.300Z,2.00
2022-09-17T08:24:09.032Z,1.77
2022-09-17T08:26:39.160Z,1.57
2022-09-17T08:29:09.216Z,2.47
2022-09-17T08:31:37.853Z,1.57
2022-09-17T08:34:09.629Z,1.57
2022-09-17T08:36:38.672Z,1.87
2022-09-17T08:39:07.080Z,2.33
2022-09-17T08:41:50.554Z,1.50
2022-09-17T08:44:28.662Z,1.93
2022-09-17T08:47:02.391Z,2.20
2022-09-17T08:49:35.845Z,1.43
2022-09-17T08:52:20.706Z,2.03
2022-09-17T08:54:58.606Z,1.43
2022-09-17T08:57:37.951Z,1.67
2022-09-17T09:00:13.253Z,2.07
2022-09-17T09:03:08.207Z,1.87
2022-09-17T09:05:45.097Z,1.47
2022-09-17T09:08:18.506Z,1.80
2022-09-17T09:10:52.661Z,1.40
2022-09-17T09:13:25.752Z,1.17
2022-09-17T09:15:59.967Z,2.30
2022-09-17T09:18:32.114Z,1.83
2022-09-17T09:21:13.416Z,1.67
2022-09-17T09:23:54.560Z,1.70
2022-09-17T09:26:25.206Z,2.10
2022-09-17T09:29:06.292Z,2.20
2022-09-17T09:31:59.937Z,1.83
2022-09-17T09:34:31.029Z,1.97
2022-09-17T09:37:14.656Z,1.33
2022-09-17T09:39:46.246Z,1.50
2022-09-17T09:42:25.561Z,1.60
2022-09-17T09:45:01.610Z,1.93
2022-09-17T09:47:48.993Z,1.37
2022-09-17T09:50:43.039Z,1.97
2022-09-17T09:53:27.487Z,1.63
2022-09-17T09:56:07.696Z,1.13
2022-09-17T09:58:38.580Z,1.00
2022-09-17T10:01:14.833Z,1.80
2022-09-17T10:03:46.319Z,1.30
2022-09-17T10:06:16.482Z,1.83
2022-09-17T10:09:13.065Z,1.53
2022-09-17T10:11:42.505Z,1.30
2022-09-17T10:14:25.583Z,1.53
2022-09-17T10:17:13.287Z,1.50
2022-09-17T10:19:45.731Z,1.90
2022-09-17T10:22:26.750Z,1.60
2022-09-17T10:24:58.353Z,1.60
2022-09-17T10:27:28.342Z,1.87
2022-09-17T10:30:15.283Z,1.83
2022-09-17T10:32:45.558Z,1.83
2022-09-17T10:35:28.760Z,1.90
2022-09-17T10:37:58.579Z,1.87
2022-09-17T10:40:32.524Z,1.60
2022-09-17T10:43:23.741Z,1.67
2022-09-17T10:46:01.390Z,1.60
2022-09-17T10:48:34.312Z,1.10
2022-09-17T10:51:06.476Z,1.10
2022-09-17T10:54:08.850Z,1.20
2022-09-17T10:56:41.248Z,0.73
2022-09-17T10:59:40.166Z,1.20
2022-09-17T11:02:30.119Z,1.00
2022-09-17T11:05:12.166Z,1.00
2022-09-17T11:07:46.351Z,1.70
2022-09-17T11:10:24.625Z,1.67
2022-09-17T11:13:13.752Z,1.80
2022-09-17T11:15:53.877Z,0.90
2022-09-17T11:18:40.173Z,1.33
2022-09-17T11:21:33.455Z,1.67
2022-09-17T11:24:21.679Z,1.33
2022-09-17T11:26:58.475Z,1.30
2022-09-17T11:29:43.171Z,1.50
2022-09-17T11:32:27.596Z,1.13
2022-09-17T11:35:01.481Z,1.10
2022-09-17T11:37:38.295Z,1.13
2022-09-17T11:40:15.016Z,0.70
2022-09-17T11:42:47.967Z,0.67
2022-09-17T11:45:20.636Z,0.90
2022-09-17T11:47:53.787Z,0.70
2022-09-17T11:50:27.390Z,0.60
2022-09-17T11:53:06.106Z,0.70
2022-09-17T11:55:41.755Z,1.03
2022-09-17T11:58:16.387Z,1.27
2022-09-17T12:01:02.514Z,0.63
2022-09-17T12:03:36.991Z,0.60
2022-09-17T12:06:13.184Z,1.30
2022-09-17T12:08:49.643Z,0.80
2022-09-17T12:11:21.965Z,0.60
2022-09-17T12:13:53.187Z,1.00
2022-09-17T12:16:26.968Z,0.80
2022-09-17T12:19:02.132Z,1.43
2022-09-17T12:21:36.118Z,0.87
2022-09-17T12:24:22.635Z,2.47
2022-09-17T12:27:06.039Z,2.03
2022-09-17T12:30:05.344Z,1.10
2022-09-17T12:33:00.825Z,0.80
2022-09-17T12:36:04.359Z,0.60
2022-09-17T12:38:51.882Z,0.73
2022-09-17T12:41:26.095Z,0.83
2022-09-17T12:44:13.319Z,1.07
2022-09-17T12:47:01.822Z,1.17
2022-09-17T12:49:49.077Z,0.87
2022-09-17T12:52:28.735Z,1.00
2022-09-17T12:55:24.979Z,1.03
2022-09-17T12:58:02.637Z,0.93
2022-09-17T13:00:38.308Z,1.00
2022-09-17T13:03:18.622Z,1.47
2022-09-17T13:06:28.108Z,1.10
2022-09-17T13:09:11.940Z,1.50
2022-09-17T13:12:01.099Z,1.70
2022-09-17T13:14:47.044Z,2.27
2022-09-17T13:17:24.796Z,1.43
2022-09-17T13:20:01.675Z,1.37
2022-09-17T13:22:34.183Z,1.40
2022-09-17T13:25:06.745Z,1.80
2022-09-17T13:27:38.362Z,1.37
2022-09-17T13:30:11.140Z,2.00
2022-09-17T13:32:47.609Z,2.00
2022-09-17T13:35:52.511Z,1.10
2022-09-17T13:38:23.969Z,1.13
2022-09-17T13:40:54.090Z,1.53
2022-09-17T13:43:27.782Z,2.17
2022-09-17T13:46:18.431Z,1.30
2022-09-17T13:48:58.695Z,1.70
2022-09-17T13:51:54.906Z,1.77
2022-09-17T13:54:37.661Z,1.10
2022-09-17T13:57:13.755Z,1.80
2022-09-17T13:59:55.828Z,1.60
2022-09-17T14:02:40.931Z,2.00
2022-09-17T14:05:37.624Z,2.03
2022-09-17T14:08:16.078Z,2.07
2022-09-17T14:10:47.292Z,2.33
2022-09-17T14:13:27.891Z,2.20
2022-09-17T14:16:05.488Z,1.77
2022-09-17T14:19:00.610Z,1.80
2022-09-17T14:21:33.007Z,1.30
2022-09-17T14:24:04.589Z,1.90
2022-09-17T14:26:54.737Z,1.60
2022-09-17T14:29:48.848Z,2.00
2022-09-17T14:32:21.549Z,1.47
2022-09-17T14:34:51.809Z,1.70
2022-09-17T14:37:22.423Z,1.83
2022-09-17T14:39:53.209Z,2.03
2022-09-17T14:42:25.885Z,2.23
2022-09-17T14:45:00.309Z,1.90
2022-09-17T14:47:28.870Z,2.23
2022-09-17T14:50:24.906Z,1.50
2022-09-17T14:52:55.114Z,1.77
2022-09-17T14:55:26.555Z,2.20
2022-09-17T14:57:56.739Z,1.67
2022-09-17T15:00:26.962Z,1.63
2022-09-17T15:02:59.656Z,1.80
2022-09-17T15:05:33.177Z,1.97
2022-09-17T15:08:13.781Z,1.47
2022-09-17T15:10:49.297Z,2.10
2022-09-17T15:13:21.949Z,1.57
2022-09-17T15:15:57.703Z,1.90
2022-09-17T15:18:35.280Z,1.37
2022-09-17T15:21:17.183Z,1.60
2022-09-17T15:23:50.734Z,1.73
2022-09-17T15:26:26.678Z,2.00
2022-09-17T15:28:57.503Z,2.13
2022-09-17T15:31:27.170Z,1.47
2022-09-17T15:33:56.042Z,2.10
2022-09-17T15:36:28.145Z,2.40
2022-09-17T15:38:57.230Z,2.10
2022-09-17T15:41:31.472Z,1.80
2022-09-17T15:44:30.211Z,2.07
2022-09-17T15:47:32.915Z,2.27
2022-09-17T15:50:16.460Z,1.90
2022-09-17T15:52:47.049Z,2.30
2022-09-17T15:55:36.475Z,2.00
2022-09-17T15:58:07.327Z,2.00
2022-09-17T16:00:35.975Z,1.77
2022-09-17T16:03:41.914Z,2.50
2022-09-17T16:06:37.783Z,1.93
2022-09-17T16:09:44.203Z,2.53
2022-09-17T16:12:14.726Z,2.47
2022-09-17T16:14:51.378Z,2.57
2022-09-17T16:17:35.641Z,2.10
2022-09-17T16:20:11.071Z,2.33
2022-09-17T16:22:39.543Z,2.70
2022-09-17T16:25:10.105Z,2.67
2022-09-17T16:27:47.596Z,2.30
2022-09-17T16:30:18.833Z,2.00
2022-09-17T16:32:47.728Z,2.40
2022-09-17T16:35:17.949Z,3.03
2022-09-17T16:37:50.377Z,2.97
2022-09-17T16:40:21.938Z,2.17
2022-09-17T16:42:50.670Z,2.70
2022-09-17T16:45:20.390Z,2.47
2022-09-17T16:47:49.659Z,2.23
2022-09-17T16:50:19.516Z,2.77
2022-09-17T16:52:48.215Z,2.67
2022-09-17T16:55:19.712Z,2.67
2022-09-17T16:57:50.196Z,3.17
2022-09-17T17:00:21.405Z,3.90
2022-09-17T17:02:55.158Z,3.27
2022-09-17T17:05:24.187Z,3.23
2022-09-17T17:07:55.244Z,3.70
2022-09-17T17:10:26.717Z,3.10
2022-09-17T17:12:58.140Z,2.40
2022-09-17T17:15:27.339Z,3.00
2022-09-17T17:17:59.329Z,2.53
2022-09-17T17:20:28.090Z,3.17
2022-09-17T17:22:57.597Z,3.77
2022-09-17T17:25:29.500Z,2.70
2022-09-17T17:28:00.475Z,2.53
2022-09-17T17:30:34.275Z,3.93
2022-09-17T17:33:04.901Z,3.10
2022-09-17T17:35:33.501Z,2.77
2022-09-17T17:38:02.682Z,2.83
2022-09-17T17:40:34.712Z,2.40
2022-09-17T17:43:05.078Z,2.27
2022-09-17T17:45:34.382Z,2.60
2022-09-17T17:48:05.581Z,3.07
2022-09-17T17:50:34.820Z,2.50
2022-09-17T17:53:03.852Z,2.63
2022-09-17T17:55:32.660Z,3.13
2022-09-17T17:58:01.842Z,3.50
2022-09-17T18:00:32.123Z,3.03
2022-09-17T18:03:01.290Z,2.50
2022-09-17T18:05:32.495Z,2.70
2022-09-17T18:08:01.151Z,3.30
2022-09-17T18:10:29.736Z,2.30
2022-09-17T18:12:58.840Z,2.33
2022-09-17T18:15:27.554Z,2.53
2022-09-17T18:17:57.564Z,2.37
2022-09-17T18:20:26.634Z,3.27
2022-09-17T18:22:56.107Z,2.43
2022-09-17T18:25:24.584Z,1.93
2022-09-17T18:27:53.068Z,1.80
2022-09-17T18:30:21.908Z,1.63
2022-09-17T18:32:50.525Z,1.87
2022-09-17T18:35:20.393Z,2.00
2022-09-17T18:37:49.455Z,1.77
2022-09-17T18:40:18.212Z,1.87
2022-09-17T18:42:47.003Z,1.83
2022-09-17T18:45:15.637Z,1.73
2022-09-17T18:47:44.081Z,1.60
2022-09-17T18:50:12.842Z,1.67
2022-09-17T18:52:42.967Z,1.80
2022-09-17T18:55:11.689Z,1.70
2022-09-17T18:57:40.722Z,1.63
2022-09-17T19:00:11.518Z,1.67
2022-09-17T19:02:40.406Z,1.80
2022-09-17T19:05:09.844Z,1.37
2022-09-17T19:07:38.527Z,1.57
2022-09-17T19:10:09.348Z,1.47
2022-09-17T19:12:38.222Z,1.90
2022-09-17T19:15:08.548Z,1.40
2022-09-17T19:17:40.631Z,1.57
2022-09-17T19:20:10.351Z,1.67
2022-09-17T19:22:39.475Z,1.30
2022-09-17T19:25:10.305Z,1.43
2022-09-17T19:27:39.500Z,1.20
2022-09-17T19:30:09.622Z,1.70
2022-09-17T19:32:43.029Z,2.13
2022-09-17T19:35:11.919Z,2.43
2022-09-17T19:37:40.831Z,1.67
2022-09-17T19:40:12.063Z,1.63
2022-09-17T19:42:40.855Z,1.07
2022-09-17T19:45:10.585Z,1.53
2022-09-17T19:47:39.213Z,2.17
2022-09-17T19:50:08.350Z,1.60
2022-09-17T19:52:37.420Z,1.60
2022-09-17T19:55:12.091Z,1.83
2022-09-17T19:57:42.814Z,1.80
2022-09-17T20:00:12.624Z,1.97
2022-09-17T20:02:42.528Z,1.10
2022-09-17T20:05:11.617Z,2.07
2022-09-17T20:07:40.177Z,2.07
2022-09-17T20:10:09.503Z,1.87
2022-09-17T20:12:38.225Z,1.63
2022-09-17T20:15:09.483Z,1.60
2022-09-17T20:17:38.356Z,2.13
2022-09-17T20:20:08.631Z,1.60
2022-09-17T20:22:37.721Z,2.03
2022-09-17T20:25:07.708Z,1.63
2022-09-17T20:27:36.916Z,1.60
2022-09-17T20:30:05.888Z,2.53
2022-09-17T20:32:36.074Z,1.87
2022-09-17T20:35:05.033Z,2.23
2022-09-17T20:38:12.345Z,2.00
2022-09-17T20:40:22.898Z,1.60
2022-09-17T20:42:51.824Z,1.67
2022-09-17T20:45:20.702Z,1.77
2022-09-17T20:47:51.472Z,1.20
2022-09-17T20:50:20.204Z,1.77
2022-09-17T20:52:49.254Z,1.60
2022-09-17T20:55:18.311Z,1.40
2022-09-17T20:57:47.208Z,1.27
2022-09-17T21:00:21.308Z,1.20
2022-09-17T21:02:54.502Z,1.90
2022-09-17T21:05:23.239Z,1.80
2022-09-17T21:07:52.182Z,1.30
2022-09-17T21:10:20.902Z,1.90
2022-09-17T21:12:51.423Z,1.23
2022-09-17T21:15:20.445Z,1.70
2022-09-17T21:17:51.157Z,1.57
2022-09-17T21:20:19.844Z,1.73
2022-09-17T21:22:48.716Z,1.40
2022-09-17T21:25:17.709Z,1.87
2022-09-17T21:27:46.277Z,1.83
2022-09-17T21:30:15.092Z,1.60
2022-09-17T21:32:43.555Z,2.50
2022-09-17T21:35:13.946Z,2.03
2022-09-17T21:37:42.702Z,1.60
2022-09-17T21:40:12.425Z,3.07
2022-09-17T21:42:41.092Z,2.67
2022-09-17T21:45:10.053Z,2.43
2022-09-17T21:47:38.753Z,2.00
2022-09-17T21:50:08.454Z,2.13
2022-09-17T21:52:38.501Z,1.50
2022-09-17T21:55:08.246Z,2.07
2022-09-17T21:57:37.174Z,1.93
2022-09-17T22:00:08.377Z,2.03
2022-09-17T22:02:37.188Z,2.10
2022-09-17T22:05:07.546Z,2.17
2022-09-17T22:07:36.243Z,2.00
2022-09-17T22:10:07.324Z,2.20
2022-09-17T22:12:35.862Z,2.07
2022-09-17T22:15:04.408Z,2.17
2022-09-17T22:17:35.730Z,2.67
2022-09-17T22:20:05.548Z,1.70
2022-09-17T22:22:34.052Z,2.10
2022-09-17T22:25:02.778Z,2.80
2022-09-17T22:27:32.835Z,2.60
2022-09-17T22:30:01.672Z,2.37
2022-09-17T22:32:30.363Z,2.47
2022-09-17T22:34:59.043Z,2.40
2022-09-17T22:37:28.988Z,2.33
2022-09-17T22:39:58.115Z,2.40
2022-09-17T22:42:27.027Z,2.53
2022-09-17T22:44:57.089Z,2.73
2022-09-17T22:47:25.489Z,2.70
2022-09-17T22:49:54.223Z,2.17
2022-09-17T22:52:22.798Z,2.70
2022-09-17T22:54:51.166Z,2.03
2022-09-17T22:57:19.856Z,2.30
2022-09-17T22:59:48.384Z,2.83
2022-09-17T23:02:18.303Z,2.70
2022-09-17T23:04:46.687Z,2.70
2022-09-17T23:07:15.413Z,2.97
2022-09-17T23:09:43.980Z,2.50
2022-09-17T23:12:12.529Z,2.20
2022-09-17T23:14:41.055Z,1.93
2022-09-17T23:17:09.762Z,2.77
2022-09-17T23:19:40.230Z,2.40
2022-09-17T23:22:09.081Z,2.73
2022-09-17T23:24:37.961Z,2.47
2022-09-17T23:27:06.663Z,3.00
2022-09-17T23:29:35.318Z,1.77
2022-09-17T23:32:04.047Z,1.90
2022-09-17T23:34:35.152Z,2.20
2022-09-17T23:37:05.197Z,1.90
2022-09-17T23:39:34.142Z,2.50
2022-09-17T23:42:02.605Z,2.20
2022-09-17T23:44:31.061Z,2.00
2022-09-17T23:46:59.518Z,2.23
2022-09-17T23:49:28.054Z,2.53
2022-09-17T23:51:56.465Z,2.70
2022-09-17T23:54:26.379Z,2.53
2022-09-17T23:56:54.954Z,2.23
2022-09-17T23:59:23.583Z,2.33
